createdAt,value
2018-01-07T00:00:40.192Z,0
2018-01-07T00:01:50.266Z,0
2018-01-07T00:03:00.234Z,0
2018-01-07T00:04:10.209Z,0
2018-01-07T00:05:20.178Z,0
2018-01-07T00:06:30.150Z,0
2018-01-07T00:07:39.329Z,0
2018-01-07T00:08:49.301Z,0
2018-01-07T00:09:59.018Z,0
2018-01-07T00:11:08.736Z,0
2018-01-07T00:12:18.447Z,0
2018-01-07T00:13:28.417Z,0
2018-01-07T00:14:38.394Z,0
2018-01-07T00:15:48.369Z,0
2018-01-07T00:16:58.340Z,0
2018-01-07T00:18:08.315Z,0
2018-01-07T00:19:18.018Z,0
2018-01-07T00:20:28.044Z,0
2018-01-07T00:21:38.013Z,0
2018-01-07T00:22:47.770Z,0
2018-01-07T00:23:57.475Z,0
2018-01-07T00:25:07.493Z,0
2018-01-07T00:26:17.469Z,0
2018-01-07T00:27:27.434Z,0
2018-01-07T00:28:37.405Z,0
2018-01-07T00:29:47.375Z,0
2018-01-07T00:30:57.346Z,0
2018-01-07T00:32:07.052Z,0
2018-01-07T00:33:17.029Z,0
2018-01-07T00:34:26.994Z,0
2018-01-07T00:35:36.698Z,0
2018-01-07T00:36:46.556Z,0
2018-01-07T00:37:56.539Z,0
2018-01-07T00:39:06.511Z,0
2018-01-07T00:40:16.212Z,0
2018-01-07T00:41:26.182Z,0
2018-01-07T00:42:35.890Z,0
2018-01-07T00:43:45.866Z,0
2018-01-07T00:44:55.574Z,0
2018-01-07T00:46:05.545Z,0
2018-01-07T00:47:15.524Z,0
2018-01-07T00:48:25.504Z,0
2018-01-07T00:49:35.479Z,0
2018-01-07T00:50:45.457Z,0
2018-01-07T00:51:54.909Z,0
2018-01-07T00:53:04.889Z,0
2018-01-07T00:54:14.617Z,0
2018-01-07T00:55:24.604Z,0
2018-01-07T00:56:34.591Z,0
2018-01-07T00:57:44.574Z,0
2018-01-07T00:58:54.548Z,0
2018-01-07T01:00:04.526Z,0
2018-01-07T01:01:14.502Z,0
2018-01-07T01:02:24.211Z,0
2018-01-07T01:03:34.185Z,0
2018-01-07T01:04:44.161Z,0
2018-01-07T01:05:54.136Z,0
2018-01-07T01:07:03.850Z,0
2018-01-07T01:08:13.822Z,0
2018-01-07T01:09:23.802Z,0
2018-01-07T01:10:33.777Z,0
2018-01-07T01:11:43.799Z,0
2018-01-07T01:12:53.775Z,0
2018-01-07T01:14:03.485Z,0
2018-01-07T01:15:13.194Z,0
2018-01-07T01:16:23.175Z,0
2018-01-07T01:17:33.146Z,0
2018-01-07T01:18:43.121Z,0
2018-01-07T01:19:53.093Z,0
2018-01-07T01:21:03.064Z,0
2018-01-07T01:22:13.044Z,0
2018-01-07T01:23:23.068Z,0
2018-01-07T01:24:32.783Z,0
2018-01-07T01:25:42.758Z,0
2018-01-07T01:26:52.734Z,0
2018-01-07T01:28:02.704Z,0
2018-01-07T01:29:12.682Z,0
2018-01-07T01:30:22.394Z,0
2018-01-07T01:31:32.414Z,0
2018-01-07T01:32:42.138Z,0
2018-01-07T01:33:52.107Z,0
2018-01-07T01:35:01.829Z,0
2018-01-07T01:36:11.805Z,0
2018-01-07T01:37:21.515Z,0
2018-01-07T01:38:31.489Z,0
2018-01-07T01:39:41.460Z,0
2018-01-07T01:40:51.478Z,0
2018-01-07T01:42:01.461Z,0
2018-01-07T01:43:11.439Z,0
2018-01-07T01:44:21.419Z,0
2018-01-07T01:45:31.398Z,0
2018-01-07T01:46:41.158Z,0
2018-01-07T01:47:50.869Z,0
2018-01-07T01:49:00.850Z,0
2018-01-07T01:50:10.827Z,0
2018-01-07T01:51:20.530Z,0
2018-01-07T01:52:30.500Z,0
2018-01-07T01:53:40.470Z,0
2018-01-07T01:54:50.442Z,0
2018-01-07T01:56:00.418Z,0
2018-01-07T01:57:10.393Z,0
2018-01-07T01:58:20.112Z,0
2018-01-07T01:59:29.819Z,0
2018-01-07T02:00:39.788Z,0
2018-01-07T02:01:49.762Z,0
2018-01-07T02:02:59.737Z,0
2018-01-07T02:04:09.716Z,0
2018-01-07T02:05:19.691Z,0
2018-01-07T02:06:29.663Z,0
2018-01-07T02:07:39.108Z,0
2018-01-07T02:08:49.088Z,0
2018-01-07T02:09:59.057Z,0
2018-01-07T02:11:08.502Z,0
2018-01-07T02:12:18.483Z,0
2018-01-07T02:13:28.455Z,0
2018-01-07T02:14:38.434Z,0
2018-01-07T02:15:48.404Z,0
2018-01-07T02:16:58.377Z,0
2018-01-07T02:18:08.100Z,0
2018-01-07T02:19:18.077Z,0
2018-01-07T02:20:28.052Z,0
2018-01-07T02:21:37.759Z,0
2018-01-07T02:22:47.733Z,0
2018-01-07T02:23:57.176Z,0
2018-01-07T02:25:07.152Z,0
2018-01-07T02:26:17.124Z,0
2018-01-07T02:27:27.096Z,0
2018-01-07T02:28:37.076Z,0
2018-01-07T02:29:47.080Z,0
2018-01-07T02:30:56.790Z,0
2018-01-07T02:32:06.769Z,0
2018-01-07T02:33:16.533Z,0
2018-01-07T02:34:26.527Z,0
2018-01-07T02:35:36.241Z,0
2018-01-07T02:36:46.231Z,0
2018-01-07T02:37:56.203Z,0
2018-01-07T02:39:05.649Z,0
2018-01-07T02:40:15.632Z,0
2018-01-07T02:41:25.611Z,0
2018-01-07T02:42:35.321Z,0
2018-01-07T02:43:45.299Z,0
2018-01-07T02:44:55.321Z,0
2018-01-07T02:46:05.305Z,0
2018-01-07T02:47:14.754Z,0
2018-01-07T02:48:24.729Z,0
2018-01-07T02:49:34.447Z,0
2018-01-07T02:50:44.157Z,0
2018-01-07T02:51:54.131Z,0
2018-01-07T02:53:04.132Z,0
2018-01-07T02:54:14.117Z,0
2018-01-07T02:55:24.096Z,0
2018-01-07T02:56:33.804Z,0
2018-01-07T02:57:43.800Z,0
2018-01-07T02:58:53.520Z,0
2018-01-07T03:00:03.236Z,0
2018-01-07T03:01:13.223Z,0
2018-01-07T03:02:23.204Z,0
2018-01-07T03:03:32.912Z,0
2018-01-07T03:04:42.359Z,0
2018-01-07T03:05:52.331Z,0
2018-01-07T03:07:02.302Z,0
2018-01-07T03:08:12.329Z,0
2018-01-07T03:09:22.343Z,0
2018-01-07T03:10:32.048Z,0
2018-01-07T03:11:42.018Z,0
2018-01-07T03:12:51.992Z,0
2018-01-07T03:14:02.070Z,0
2018-01-07T03:15:12.043Z,0
2018-01-07T03:16:22.018Z,0
2018-01-07T03:17:31.989Z,0
2018-01-07T03:18:41.698Z,0
2018-01-07T03:19:51.455Z,0
2018-01-07T03:21:01.433Z,0
2018-01-07T03:22:11.406Z,0
2018-01-07T03:23:21.387Z,0
2018-01-07T03:24:31.366Z,0
2018-01-07T03:25:41.128Z,0
2018-01-07T03:26:50.836Z,0
2018-01-07T03:28:00.814Z,0
2018-01-07T03:29:10.519Z,0
2018-01-07T03:30:20.512Z,0
2018-01-07T03:31:30.601Z,0
2018-01-07T03:32:40.583Z,0
2018-01-07T03:33:50.560Z,0
2018-01-07T03:35:00.270Z,0
2018-01-07T03:36:09.718Z,0
2018-01-07T03:37:19.695Z,0
2018-01-07T03:38:29.673Z,0
2018-01-07T03:39:39.386Z,0
2018-01-07T03:40:49.356Z,0
2018-01-07T03:41:59.330Z,0
2018-01-07T03:43:09.037Z,0
2018-01-07T03:44:19.014Z,0
2018-01-07T03:45:28.988Z,0
2018-01-07T03:46:38.957Z,0
2018-01-07T03:47:48.927Z,0
2018-01-07T03:48:58.913Z,0
2018-01-07T03:50:08.894Z,0
2018-01-07T03:51:18.866Z,0
2018-01-07T03:52:28.843Z,0
2018-01-07T03:53:38.821Z,0
2018-01-07T03:54:48.802Z,0
2018-01-07T03:55:58.777Z,0
2018-01-07T03:57:08.751Z,0
2018-01-07T03:58:18.718Z,0
2018-01-07T03:59:28.700Z,0
2018-01-07T04:03:30.995Z,0
2018-01-07T04:04:40.966Z,0
2018-01-07T04:05:50.943Z,0
2018-01-07T04:07:00.913Z,0
2018-01-07T04:08:10.885Z,0
2018-01-07T04:09:20.858Z,0
2018-01-07T04:10:30.832Z,0
2018-01-07T04:11:40.542Z,0
2018-01-07T04:12:50.513Z,0
2018-01-07T04:14:00.221Z,0
2018-01-07T04:15:10.243Z,0
2018-01-07T04:16:19.968Z,0
2018-01-07T04:17:29.949Z,0
2018-01-07T04:18:39.918Z,0
2018-01-07T04:19:49.892Z,0
2018-01-07T04:20:59.865Z,0
2018-01-07T04:22:09.576Z,0
2018-01-07T04:23:19.551Z,0
2018-01-07T04:24:29.523Z,0
2018-01-07T04:25:39.507Z,0
2018-01-07T04:26:49.479Z,0
2018-01-07T04:27:59.193Z,0
2018-01-07T04:29:08.901Z,0
2018-01-07T04:30:18.654Z,0
2018-01-07T04:31:28.371Z,0
2018-01-07T04:32:37.824Z,0
2018-01-07T04:33:47.798Z,0
2018-01-07T04:34:57.769Z,0
2018-01-07T04:36:07.477Z,0
2018-01-07T04:37:17.191Z,0
2018-01-07T04:38:26.369Z,0
2018-01-07T04:39:36.075Z,0
2018-01-07T04:40:46.050Z,0
2018-01-07T04:41:56.022Z,0
2018-01-07T04:43:06.006Z,0
2018-01-07T04:44:15.772Z,0
2018-01-07T04:45:25.755Z,0
2018-01-07T04:46:35.731Z,0
2018-01-07T04:47:45.704Z,0
2018-01-07T04:48:55.690Z,0
2018-01-07T04:50:05.663Z,0
2018-01-07T04:51:15.647Z,0
2018-01-07T04:52:25.621Z,0
2018-01-07T04:53:35.595Z,0
2018-01-07T04:54:45.304Z,0
2018-01-07T04:55:55.281Z,0
2018-01-07T04:57:05.268Z,0
2018-01-07T04:58:15.280Z,0
2018-01-07T04:59:25.251Z,0
2018-01-07T05:00:35.225Z,0
2018-01-07T05:01:45.199Z,0
2018-01-07T05:02:54.912Z,0
2018-01-07T05:04:04.888Z,0
2018-01-07T05:05:14.858Z,0
2018-01-07T05:06:24.832Z,0
2018-01-07T05:07:34.812Z,0
2018-01-07T05:08:44.523Z,0
2018-01-07T05:09:54.494Z,0
2018-01-07T05:11:04.471Z,0
2018-01-07T05:12:14.443Z,0
2018-01-07T05:13:24.415Z,0
2018-01-07T05:14:34.150Z,0
2018-01-07T05:15:44.122Z,0
2018-01-07T05:16:54.096Z,0
2018-01-07T05:18:03.804Z,0
2018-01-07T05:19:13.826Z,0
2018-01-07T05:20:23.806Z,0
2018-01-07T05:21:33.777Z,0
2018-01-07T05:22:43.754Z,0
2018-01-07T05:23:53.728Z,0
2018-01-07T05:25:03.698Z,0
2018-01-07T05:26:13.406Z,0
2018-01-07T05:27:23.375Z,0
2018-01-07T05:28:33.350Z,0
2018-01-07T05:29:43.321Z,0
2018-01-07T05:30:53.136Z,0
2018-01-07T05:32:02.845Z,0
2018-01-07T05:33:12.553Z,0
2018-01-07T05:34:22.584Z,0
2018-01-07T05:35:32.028Z,0
2018-01-07T05:36:42.002Z,0
2018-01-07T05:37:51.971Z,0
2018-01-07T05:39:01.941Z,0
2018-01-07T05:40:11.912Z,0
2018-01-07T05:41:21.622Z,0
2018-01-07T05:42:31.601Z,0
2018-01-07T05:43:41.579Z,0
2018-01-07T05:44:51.547Z,0
2018-01-07T05:46:01.526Z,0
2018-01-07T05:47:11.504Z,0
2018-01-07T05:48:21.580Z,0
2018-01-07T05:49:31.559Z,0
2018-01-07T05:50:41.574Z,0
2018-01-07T05:51:51.544Z,0
2018-01-07T05:53:01.250Z,0
2018-01-07T05:54:11.221Z,0
2018-01-07T05:55:20.926Z,0
2018-01-07T05:56:30.635Z,0
2018-01-07T05:57:40.608Z,0
2018-01-07T05:58:50.579Z,0
2018-01-07T06:00:00.552Z,0
2018-01-07T06:01:10.279Z,0
2018-01-07T06:02:19.988Z,0
2018-01-07T06:03:29.743Z,0
2018-01-07T06:04:39.718Z,0
2018-01-07T06:05:49.702Z,0
2018-01-07T06:06:59.408Z,0
2018-01-07T06:08:09.412Z,0
2018-01-07T06:09:19.395Z,0
2018-01-07T06:10:29.380Z,0
2018-01-07T06:11:39.361Z,0
2018-01-07T06:12:49.333Z,0
2018-01-07T06:13:59.037Z,0
2018-01-07T06:15:09.017Z,0
2018-01-07T06:16:18.989Z,0
2018-01-07T06:17:29.014Z,0
2018-01-07T06:18:39.046Z,0
2018-01-07T06:19:48.755Z,0
2018-01-07T06:20:58.727Z,0
2018-01-07T06:22:08.435Z,0
2018-01-07T06:23:18.200Z,0
2018-01-07T06:24:27.907Z,0
2018-01-07T06:25:37.622Z,0
2018-01-07T06:26:47.328Z,0
2018-01-07T06:27:56.785Z,0
2018-01-07T06:29:06.763Z,0
2018-01-07T06:30:16.830Z,0
2018-01-07T06:31:26.805Z,0
2018-01-07T06:32:36.783Z,0
2018-01-07T06:33:46.761Z,0
2018-01-07T06:34:56.738Z,0
2018-01-07T06:36:06.713Z,0
2018-01-07T06:37:16.421Z,0
2018-01-07T06:38:26.393Z,0
2018-01-07T06:39:36.383Z,0
2018-01-07T06:40:46.393Z,0
2018-01-07T06:41:56.372Z,0
2018-01-07T06:43:06.345Z,0
2018-01-07T06:44:15.523Z,0
2018-01-07T06:45:25.499Z,0
2018-01-07T06:46:35.204Z,0
2018-01-07T06:47:45.184Z,0
2018-01-07T06:48:54.892Z,0
2018-01-07T06:50:04.605Z,0
2018-01-07T06:51:14.048Z,0
2018-01-07T06:52:24.024Z,0
2018-01-07T06:53:33.995Z,0
2018-01-07T06:54:43.706Z,0
2018-01-07T06:55:53.414Z,0
2018-01-07T06:57:03.387Z,0
2018-01-07T06:58:12.833Z,0
2018-01-07T06:59:22.807Z,0
2018-01-07T07:00:32.851Z,0
2018-01-07T07:01:42.932Z,0
2018-01-07T07:02:52.903Z,0
2018-01-07T07:04:02.611Z,0
2018-01-07T07:05:12.618Z,0
2018-01-07T07:06:22.591Z,0
2018-01-07T07:07:32.568Z,0
2018-01-07T07:08:42.277Z,0
2018-01-07T07:09:52.262Z,0
2018-01-07T07:11:01.710Z,0
2018-01-07T07:12:11.704Z,0
2018-01-07T07:13:21.700Z,0
2018-01-07T07:14:31.145Z,0
2018-01-07T07:15:40.856Z,0
2018-01-07T07:16:50.832Z,0
2018-01-07T07:18:00.803Z,0
2018-01-07T07:19:10.514Z,0
2018-01-07T07:20:20.483Z,0
2018-01-07T07:21:30.461Z,4
2018-01-07T07:22:40.431Z,4
2018-01-07T07:23:50.134Z,0
2018-01-07T07:25:00.106Z,0
2018-01-07T07:26:09.819Z,0
2018-01-07T07:27:19.792Z,4
2018-01-07T07:28:29.761Z,0
2018-01-07T07:29:39.201Z,4
2018-01-07T07:30:49.184Z,4
2018-01-07T07:31:58.622Z,4
2018-01-07T07:33:08.595Z,4
2018-01-07T07:34:18.304Z,4
2018-01-07T07:35:28.279Z,8
2018-01-07T07:36:37.728Z,4
2018-01-07T07:37:47.703Z,4
2018-01-07T07:38:57.409Z,4
2018-01-07T07:40:07.398Z,8
2018-01-07T07:41:17.423Z,12
2018-01-07T07:42:27.396Z,12
2018-01-07T07:43:37.369Z,12
2018-01-07T07:44:47.339Z,12
2018-01-07T07:45:57.308Z,12
2018-01-07T07:47:07.285Z,20
2018-01-07T07:48:16.995Z,20
2018-01-07T07:49:26.969Z,20
2018-01-07T07:50:36.968Z,24
2018-01-07T07:51:46.940Z,28
2018-01-07T07:52:56.646Z,32
2018-01-07T07:54:06.619Z,36
2018-01-07T07:55:16.592Z,40
2018-01-07T07:56:26.568Z,44
2018-01-07T07:57:36.545Z,52
2018-01-07T07:58:46.251Z,56
2018-01-07T07:59:55.958Z,64
2018-01-07T08:01:05.942Z,72
2018-01-07T08:02:15.748Z,80
2018-01-07T08:03:25.724Z,88
2018-01-07T08:04:35.169Z,96
2018-01-07T08:05:45.159Z,108
2018-01-07T08:06:55.132Z,120
2018-01-07T08:08:04.843Z,132
2018-01-07T08:09:14.560Z,144
2018-01-07T08:10:24.541Z,156
2018-01-07T08:11:33.720Z,172
2018-01-07T08:12:43.429Z,184
2018-01-07T08:13:53.402Z,196
2018-01-07T08:15:03.379Z,208
2018-01-07T08:16:13.086Z,224
2018-01-07T08:17:23.065Z,240
2018-01-07T08:18:33.045Z,256
2018-01-07T08:19:43.018Z,276
2018-01-07T08:20:52.992Z,288
2018-01-07T08:22:02.700Z,296
2018-01-07T08:23:12.674Z,296
2018-01-07T08:24:22.647Z,296
2018-01-07T08:25:32.356Z,292
2018-01-07T08:26:42.380Z,296
2018-01-07T08:27:52.355Z,304
2018-01-07T08:29:01.803Z,316
2018-01-07T08:30:11.797Z,328
2018-01-07T08:31:21.887Z,340
2018-01-07T08:32:31.605Z,348
2018-01-07T08:33:41.580Z,356
2018-01-07T08:34:51.558Z,360
2018-01-07T08:36:01.586Z,360
2018-01-07T08:37:11.566Z,360
2018-01-07T08:38:21.539Z,364
2018-01-07T08:39:31.250Z,368
2018-01-07T08:40:40.961Z,372
2018-01-07T08:41:50.939Z,380
2018-01-07T08:43:00.915Z,396
2018-01-07T08:44:10.364Z,412
2018-01-07T08:45:20.071Z,428
2018-01-07T08:46:30.049Z,444
2018-01-07T08:47:40.028Z,460
2018-01-07T08:48:50.113Z,472
2018-01-07T08:50:00.093Z,480
2018-01-07T08:51:10.075Z,496
2018-01-07T08:52:20.051Z,508
2018-01-07T08:53:30.025Z,524
2018-01-07T08:54:39.786Z,540
2018-01-07T08:55:49.507Z,556
2018-01-07T08:56:59.483Z,572
2018-01-07T08:58:09.231Z,588
2018-01-07T08:59:19.227Z,600
2018-01-07T09:00:28.982Z,608
2018-01-07T09:01:38.955Z,620
2018-01-07T09:02:48.933Z,628
2018-01-07T09:03:58.913Z,636
2018-01-07T09:05:08.625Z,636
2018-01-07T09:06:18.608Z,640
2018-01-07T09:07:28.317Z,636
2018-01-07T09:08:38.032Z,632
2018-01-07T09:09:48.009Z,632
2018-01-07T09:10:57.992Z,640
2018-01-07T09:12:07.730Z,656
2018-01-07T09:13:17.706Z,672
2018-01-07T09:14:27.424Z,692
2018-01-07T09:15:37.405Z,712
2018-01-07T09:16:47.434Z,736
2018-01-07T09:17:57.408Z,764
2018-01-07T09:19:07.118Z,796
2018-01-07T09:20:17.093Z,820
2018-01-07T09:21:27.070Z,840
2018-01-07T09:22:37.047Z,856
2018-01-07T09:23:47.020Z,868
2018-01-07T09:24:56.739Z,876
2018-01-07T09:26:06.188Z,884
2018-01-07T09:27:15.898Z,892
2018-01-07T09:28:25.609Z,908
2018-01-07T09:29:35.417Z,928
2018-01-07T09:30:45.396Z,944
2018-01-07T09:31:55.117Z,956
2018-01-07T09:33:05.098Z,964
2018-01-07T09:34:15.074Z,964
2018-01-07T09:35:24.785Z,972
2018-01-07T09:36:34.224Z,980
2018-01-07T09:37:44.213Z,996
2018-01-07T09:38:54.243Z,1012
2018-01-07T09:40:03.959Z,1024
2018-01-07T09:41:13.722Z,1044
2018-01-07T09:42:23.701Z,1064
2018-01-07T09:43:33.411Z,1084
2018-01-07T09:44:43.126Z,1096
2018-01-07T09:45:53.103Z,1104
2018-01-07T09:47:03.128Z,1124
2018-01-07T09:48:13.105Z,1140
2018-01-07T09:49:22.550Z,1160
2018-01-07T09:50:32.530Z,1180
2018-01-07T09:51:42.248Z,1200
2018-01-07T09:52:52.275Z,1224
2018-01-07T09:54:02.252Z,1244
2018-01-07T09:55:12.232Z,1256
2018-01-07T09:56:22.212Z,1276
2018-01-07T09:57:32.197Z,1292
2018-01-07T09:58:42.173Z,1304
2018-01-07T09:59:52.166Z,1316
2018-01-07T10:01:01.883Z,1316
2018-01-07T10:02:11.869Z,1312
2018-01-07T10:03:21.847Z,1320
2018-01-07T10:04:31.297Z,1336
2018-01-07T10:05:41.278Z,1364
2018-01-07T10:06:51.257Z,1392
2018-01-07T10:08:01.230Z,1432
2018-01-07T10:09:11.210Z,1472
2018-01-07T10:10:20.922Z,1524
2018-01-07T10:11:30.636Z,1592
2018-01-07T10:12:40.346Z,1652
2018-01-07T10:13:50.058Z,1716
2018-01-07T10:15:00.045Z,1776
2018-01-07T10:16:10.027Z,1836
2018-01-07T10:17:20.021Z,1864
2018-01-07T10:18:29.998Z,1888
2018-01-07T10:19:39.974Z,1896
2018-01-07T10:20:49.698Z,1904
2018-01-07T10:21:59.409Z,1920
2018-01-07T10:23:09.127Z,1952
2018-01-07T10:24:18.839Z,1996
2018-01-07T10:25:28.814Z,2036
2018-01-07T10:26:38.797Z,2084
2018-01-07T10:27:48.779Z,2128
2018-01-07T10:28:58.772Z,2192
2018-01-07T10:30:08.512Z,2256
2018-01-07T10:31:18.503Z,2304
2018-01-07T10:32:28.243Z,2328
2018-01-07T10:33:38.223Z,2364
2018-01-07T10:34:48.199Z,2424
2018-01-07T10:35:58.175Z,2492
2018-01-07T10:37:07.891Z,2548
2018-01-07T10:38:17.620Z,2568
2018-01-07T10:39:27.607Z,2580
2018-01-07T10:40:37.586Z,2608
2018-01-07T10:41:47.562Z,2628
2018-01-07T10:42:57.599Z,2616
2018-01-07T10:44:07.318Z,2600
2018-01-07T10:45:17.032Z,2560
2018-01-07T10:46:26.503Z,2492
2018-01-07T10:47:36.534Z,2396
2018-01-07T10:48:45.980Z,2288
2018-01-07T10:49:56.022Z,2200
2018-01-07T10:51:06.000Z,2144
2018-01-07T10:52:15.979Z,2100
2018-01-07T10:53:25.956Z,2080
2018-01-07T10:54:35.672Z,2080
2018-01-07T10:55:45.670Z,2088
2018-01-07T10:56:55.709Z,2096
2018-01-07T10:58:05.691Z,2132
2018-01-07T10:59:15.668Z,2200
2018-01-07T11:00:25.643Z,2292
2018-01-07T11:01:35.090Z,2412
2018-01-07T11:02:45.068Z,2540
2018-01-07T11:03:55.047Z,2652
2018-01-07T11:05:04.760Z,2736
2018-01-07T11:06:14.471Z,2744
2018-01-07T11:07:24.452Z,2752
2018-01-07T11:08:34.479Z,2768
2018-01-07T11:09:44.197Z,2792
2018-01-07T11:10:54.198Z,2824
2018-01-07T11:12:04.184Z,2900
2018-01-07T11:13:13.898Z,3036
2018-01-07T11:14:23.902Z,3196
2018-01-07T11:15:33.612Z,3348
2018-01-07T11:16:43.330Z,3520
2018-01-07T11:17:53.064Z,3668
2018-01-07T11:19:03.058Z,3792
2018-01-07T11:20:12.555Z,3912
2018-01-07T11:21:22.547Z,4004
2018-01-07T11:22:32.527Z,4076
2018-01-07T11:23:41.976Z,4116
2018-01-07T11:24:51.955Z,4140
2018-01-07T11:26:01.933Z,4152
2018-01-07T11:27:11.920Z,4164
2018-01-07T11:28:21.643Z,4080
2018-01-07T11:29:31.356Z,3936
2018-01-07T11:30:41.070Z,3744
2018-01-07T11:31:50.784Z,3540
2018-01-07T11:33:00.769Z,3344
2018-01-07T11:34:10.486Z,3176
2018-01-07T11:35:20.470Z,3032
2018-01-07T11:36:30.182Z,2920
2018-01-07T11:37:39.629Z,2844
2018-01-07T11:38:49.350Z,2796
2018-01-07T11:39:59.062Z,2736
2018-01-07T11:41:08.779Z,2688
2018-01-07T11:42:18.226Z,2628
2018-01-07T11:43:27.954Z,2564
2018-01-07T11:44:37.670Z,2520
2018-01-07T11:45:47.394Z,2488
2018-01-07T11:46:57.392Z,2444
2018-01-07T11:48:07.371Z,2380
2018-01-07T11:49:17.088Z,2296
2018-01-07T11:50:26.801Z,2204
2018-01-07T11:51:36.809Z,2116
2018-01-07T11:52:46.827Z,2028
2018-01-07T11:53:56.543Z,1968
2018-01-07T11:55:06.530Z,1896
2018-01-07T11:56:16.248Z,1844
2018-01-07T11:57:26.227Z,1756
2018-01-07T11:58:35.946Z,1676
2018-01-07T11:59:45.934Z,1624
2018-01-07T12:00:55.381Z,1592
2018-01-07T12:02:05.417Z,1580
2018-01-07T12:03:15.401Z,1552
2018-01-07T12:04:25.389Z,1508
2018-01-07T12:05:34.852Z,1464
2018-01-07T12:06:44.843Z,1444
2018-01-07T12:07:54.824Z,1416
2018-01-07T12:09:04.824Z,1412
2018-01-07T12:10:14.270Z,1404
2018-01-07T12:11:24.258Z,1400
2018-01-07T12:12:34.335Z,1428
2018-01-07T12:13:44.050Z,1408
2018-01-07T12:14:53.235Z,1384
2018-01-07T12:16:03.276Z,1344
2018-01-07T12:17:12.992Z,1332
2018-01-07T12:18:22.975Z,1360
2018-01-07T12:19:32.683Z,1372
2018-01-07T12:20:43.037Z,1372
2018-01-07T12:21:53.018Z,1372
2018-01-07T12:23:02.728Z,1388
2018-01-07T12:24:12.716Z,1412
2018-01-07T12:25:22.698Z,1396
2018-01-07T12:26:32.678Z,1384
2018-01-07T12:27:42.444Z,1348
2018-01-07T12:28:52.430Z,1336
2018-01-07T12:30:02.145Z,1360
2018-01-07T12:31:11.919Z,1416
2018-01-07T12:32:21.646Z,1492
2018-01-07T12:33:31.095Z,1656
2018-01-07T12:34:40.809Z,1816
2018-01-07T12:35:50.530Z,1900
2018-01-07T12:37:00.244Z,1940
2018-01-07T12:38:09.962Z,1940
2018-01-07T12:39:19.941Z,1920
2018-01-07T12:40:29.676Z,1856
2018-01-07T12:41:39.229Z,1784
2018-01-07T12:42:49.261Z,1724
2018-01-07T12:43:59.252Z,1704
2018-01-07T12:45:09.240Z,1668
2018-01-07T12:46:19.219Z,1616
2018-01-07T12:47:29.211Z,1548
2018-01-07T12:48:38.932Z,1512
2018-01-07T12:49:48.916Z,1500
2018-01-07T12:50:58.654Z,1504
2018-01-07T12:52:08.693Z,1524
2018-01-07T12:53:18.771Z,1516
2018-01-07T12:54:28.749Z,1504
2018-01-07T12:55:38.464Z,1452
2018-01-07T12:56:48.444Z,1420
2018-01-07T12:57:58.419Z,1452
2018-01-07T12:59:08.404Z,1444
2018-01-07T13:00:18.388Z,1436
2018-01-07T13:01:28.109Z,1400
2018-01-07T13:02:37.559Z,1364
2018-01-07T13:03:47.545Z,1344
2018-01-07T13:04:57.259Z,1304
2018-01-07T13:06:07.019Z,1284
2018-01-07T13:07:17.049Z,1256
2018-01-07T13:08:27.039Z,1224
2018-01-07T13:09:36.750Z,1196
2018-01-07T13:10:46.727Z,1176
2018-01-07T13:11:56.442Z,1144
2018-01-07T13:13:06.158Z,1128
2018-01-07T13:14:16.142Z,1108
2018-01-07T13:15:26.120Z,1096
2018-01-07T13:16:36.113Z,1092
2018-01-07T13:17:46.103Z,1072
2018-01-07T13:18:56.090Z,1068
2018-01-07T13:20:05.808Z,1060
2018-01-07T13:21:15.519Z,1056
2018-01-07T13:22:25.233Z,1044
2018-01-07T13:23:34.944Z,1044
2018-01-07T13:24:44.663Z,1056
2018-01-07T13:25:54.702Z,1048
2018-01-07T13:27:04.687Z,1044
2018-01-07T13:28:14.448Z,1036
2018-01-07T13:29:24.438Z,1024
2018-01-07T13:30:34.420Z,1016
2018-01-07T13:31:44.402Z,1012
2018-01-07T13:32:54.118Z,1012
2018-01-07T13:34:03.568Z,992
2018-01-07T13:35:13.615Z,984
2018-01-07T13:36:23.606Z,980
2018-01-07T13:37:33.365Z,988
2018-01-07T13:38:43.350Z,980
2018-01-07T13:39:53.330Z,992
2018-01-07T13:41:03.313Z,1016
2018-01-07T13:42:13.291Z,1028
2018-01-07T13:43:22.740Z,992
2018-01-07T13:44:32.715Z,980
2018-01-07T13:45:42.440Z,972
2018-01-07T13:46:52.424Z,980
2018-01-07T13:48:02.411Z,928
2018-01-07T13:49:12.403Z,912
2018-01-07T13:50:22.381Z,868
2018-01-07T13:51:31.830Z,856
2018-01-07T13:52:41.812Z,820
2018-01-07T13:53:51.792Z,808
2018-01-07T13:55:01.777Z,792
2018-01-07T13:56:11.762Z,768
2018-01-07T13:57:21.743Z,744
2018-01-07T13:58:31.463Z,724
2018-01-07T13:59:40.910Z,688
2018-01-07T14:00:50.892Z,668
2018-01-07T14:02:00.611Z,656
2018-01-07T14:03:10.596Z,632
2018-01-07T14:04:20.575Z,620
2018-01-07T14:05:30.569Z,600
2018-01-07T14:06:40.282Z,580
2018-01-07T14:07:49.994Z,564
2018-01-07T14:08:59.971Z,540
2018-01-07T14:10:09.957Z,520
2018-01-07T14:11:19.451Z,480
2018-01-07T14:12:29.435Z,464
2018-01-07T14:13:39.420Z,432
2018-01-07T14:14:49.459Z,408
2018-01-07T14:15:58.644Z,384
2018-01-07T14:17:08.627Z,360
2018-01-07T14:18:18.343Z,356
2018-01-07T14:19:27.793Z,344
2018-01-07T14:20:37.514Z,316
2018-01-07T14:21:47.537Z,300
2018-01-07T14:22:57.513Z,304
2018-01-07T14:24:07.230Z,304
2018-01-07T14:25:17.214Z,280
2018-01-07T14:26:27.192Z,272
2018-01-07T14:27:36.996Z,264
2018-01-07T14:28:46.979Z,256
2018-01-07T14:29:56.704Z,248
2018-01-07T14:31:06.693Z,236
2018-01-07T14:32:16.678Z,232
2018-01-07T14:33:26.666Z,224
2018-01-07T14:34:36.388Z,212
2018-01-07T14:35:46.101Z,200
2018-01-07T14:36:56.088Z,188
2018-01-07T14:38:05.805Z,180
2018-01-07T14:39:15.788Z,164
2018-01-07T14:40:25.771Z,152
2018-01-07T14:41:35.490Z,140
2018-01-07T14:42:45.205Z,128
2018-01-07T14:43:55.192Z,116
2018-01-07T14:45:04.906Z,104
2018-01-07T14:46:14.624Z,92
2018-01-07T14:47:24.072Z,88
2018-01-07T14:48:33.789Z,76
2018-01-07T14:49:43.772Z,68
2018-01-07T14:50:53.489Z,60
2018-01-07T14:52:03.464Z,56
2018-01-07T14:53:13.455Z,52
2018-01-07T14:54:23.438Z,44
2018-01-07T14:55:33.152Z,44
2018-01-07T14:56:42.866Z,36
2018-01-07T14:57:52.847Z,36
2018-01-07T14:59:02.826Z,32
2018-01-07T15:00:12.808Z,24
2018-01-07T15:01:22.890Z,24
2018-01-07T15:02:32.872Z,20
2018-01-07T15:03:42.849Z,20
2018-01-07T15:04:52.829Z,16
2018-01-07T15:06:02.544Z,16
2018-01-07T15:07:12.294Z,12
2018-01-07T15:08:22.272Z,12
2018-01-07T15:09:31.992Z,12
2018-01-07T15:10:41.968Z,8
2018-01-07T15:11:51.687Z,8
2018-01-07T15:13:01.674Z,8
2018-01-07T15:14:11.660Z,4
2018-01-07T15:15:21.392Z,8
2018-01-07T15:16:31.112Z,4
2018-01-07T15:17:40.297Z,4
2018-01-07T15:18:50.280Z,4
2018-01-07T15:20:00.272Z,4
2018-01-07T15:21:10.261Z,4
2018-01-07T15:22:19.974Z,4
2018-01-07T15:23:29.726Z,0
2018-01-07T15:24:39.708Z,0
2018-01-07T15:25:49.160Z,4
2018-01-07T15:26:58.879Z,4
2018-01-07T15:28:08.603Z,0
2018-01-07T15:29:18.587Z,0
2018-01-07T15:30:28.615Z,0
2018-01-07T15:31:37.797Z,0
2018-01-07T15:32:47.517Z,0
2018-01-07T15:33:57.506Z,0
2018-01-07T15:35:07.494Z,0
2018-01-07T15:36:17.522Z,0
2018-01-07T15:37:26.974Z,0
2018-01-07T15:38:36.694Z,0
2018-01-07T15:39:46.411Z,0
2018-01-07T15:40:56.128Z,0
2018-01-07T15:42:06.111Z,0
2018-01-07T15:43:15.826Z,0
2018-01-07T15:44:25.541Z,0
2018-01-07T15:45:35.522Z,0
2018-01-07T15:46:45.280Z,0
2018-01-07T15:47:55.000Z,0
2018-01-07T15:49:04.988Z,0
2018-01-07T15:50:14.975Z,0
2018-01-07T15:51:24.688Z,0
2018-01-07T15:52:34.401Z,0
2018-01-07T15:53:44.120Z,0
2018-01-07T15:54:54.101Z,0
2018-01-07T15:56:04.079Z,0
2018-01-07T15:57:13.795Z,0
2018-01-07T15:58:23.510Z,0
2018-01-07T15:59:33.324Z,0
2018-01-07T16:00:43.310Z,0
2018-01-07T16:01:53.028Z,0
2018-01-07T16:03:03.002Z,0
2018-01-07T16:04:12.458Z,0
2018-01-07T16:05:22.439Z,0
2018-01-07T16:06:32.423Z,0
2018-01-07T16:07:42.412Z,0
2018-01-07T16:08:52.403Z,0
2018-01-07T16:10:02.385Z,0
2018-01-07T16:11:12.411Z,0
2018-01-07T16:12:22.394Z,0
2018-01-07T16:13:32.104Z,0
2018-01-07T16:14:41.840Z,0
2018-01-07T16:15:51.824Z,0
2018-01-07T16:17:01.271Z,0
2018-01-07T16:18:11.256Z,0
2018-01-07T16:19:20.972Z,0
2018-01-07T16:20:30.984Z,0
2018-01-07T16:21:40.964Z,0
2018-01-07T16:22:50.951Z,0
2018-01-07T16:24:00.665Z,0
2018-01-07T16:25:10.651Z,0
2018-01-07T16:26:20.374Z,0
2018-01-07T16:27:30.091Z,0
2018-01-07T16:28:39.808Z,0
2018-01-07T16:29:49.796Z,0
2018-01-07T16:30:59.780Z,0
2018-01-07T16:32:09.768Z,0
2018-01-07T16:33:19.760Z,0
2018-01-07T16:34:29.741Z,0
2018-01-07T16:35:39.464Z,0